Time;durP1;ratioP1;P1;durP2;ratioP2;P2;SDS_P1;SDS_P2;PMS_P1;PMS_P2;Temp;Humidity;BMP_temperature;BMP_pressure;BME280_temperature;BME280_humidity;BME280_pressure;Samples;Min_cycle;Max_cycle;Signal;HPM_P1;HPM_P2
2024/04/12 00:01:09;;;;;;;18.65;10.90;;;;;;;17.05;100.00;100815.25;5422667;26;20003;-70
2024/04/12 00:03:36;;;;;;;15.55;11.23;;;;;;;16.87;100.00;100782.63;5431891;26;19999;-70
2024/04/12 00:06:05;;;;;;;17.92;11.55;;;;;;;17.28;100.00;100863.13;5431732;26;20010;-70
2024/04/12 00:08:32;;;;;;;18.88;11.68;;;;;;;16.74;100.00;100898.75;5419502;26;20003;-73
2024/04/12 00:11:02;;;;;;;20.23;13.05;;;;;;;16.20;100.00;100851.09;5413318;26;19999;-71
2024/04/12 00:13:31;;;;;;;18.87;12.93;;;;;;;16.11;100.00;100925.00;5429327;26;19999;-70
2024/04/12 00:16:03;;;;;;;18.60;12.32;;;;;;;15.70;100.00;100770.06;5429171;26;20456;-70
2024/04/12 00:18:29;;;;;;;17.15;12.55;;;;;;;15.99;100.00;100820.25;5430332;26;20003;-71
2024/04/12 00:21:01;;;;;;;17.88;11.40;;;;;;;15.72;100.00;100904.16;5430293;26;20010;-70
2024/04/12 00:23:30;;;;;;;16.67;10.88;;;;;;;15.12;100.00;100758.41;5427909;26;20446;-70
2024/04/12 00:26:02;;;;;;;15.93;10.13;;;;;;;15.72;100.00;100793.06;5432156;26;20002;-71
2024/04/12 00:28:32;;;;;;;12.55;10.02;;;;;;;15.58;100.00;100798.69;5420360;26;19999;-70
2024/04/12 00:31:02;;;;;;;13.40;10.43;;;;;;;15.72;100.00;100809.28;5438334;26;20011;-70
2024/04/12 00:33:32;;;;;;;12.60;10.10;;;;;;;15.51;100.00;100777.56;5431991;26;20035;-70
2024/04/12 00:36:08;;;;;;;10.90;9.73;;;;;;;14.94;100.00;100702.69;5431456;26;20014;-69
2024/04/12 00:38:43;;;;;;;15.95;10.40;;;;;;;14.70;100.00;100693.25;5429145;26;20000;-70
2024/04/12 00:41:14;;;;;;;13.48;10.15;;;;;;;15.22;100.00;100667.53;5427025;26;20014;-70
2024/04/12 00:43:45;;;;;;;11.77;10.13;;;;;;;15.54;100.00;100741.56;5432069;26;20008;-70
2024/04/12 00:46:14;;;;;;;16.13;10.38;;;;;;;14.88;100.00;100691.81;5427351;26;20441;-70
2024/04/12 00:48:42;;;;;;;15.35;10.48;;;;;;;15.07;100.00;100624.56;5423782;26;20479;-69
2024/04/12 00:51:10;;;;;;;12.63;10.40;;;;;;;15.66;100.00;100724.06;5427211;26;19999;-70
2024/04/12 00:53:38;;;;;;;13.05;10.32;;;;;;;14.97;100.00;100635.16;5429205;26;19999;-70
2024/04/12 00:56:06;;;;;;;12.77;10.68;;;;;;;14.64;100.00;100668.72;5439106;26;20035;-70
2024/04/12 00:58:34;;;;;;;19.85;10.10;;;;;;;15.68;100.00;100688.94;5422519;26;19999;-72
2024/04/12 01:01:15;;;;;;;15.55;10.30;;;;;;;15.72;100.00;100698.19;5429766;26;20013;-69
2024/04/12 01:03:48;;;;;;;14.23;10.70;;;;;;;15.39;100.00;100738.69;5431506;26;20416;-71
2024/04/12 01:06:18;;;;;;;14.02;10.57;;;;;;;15.68;100.00;100689.78;5436807;26;20040;-69
2024/04/12 01:08:44;;;;;;;13.93;10.65;;;;;;;15.08;100.00;100586.94;5427723;26;19999;-71
2024/04/12 01:11:13;;;;;;;14.45;10.73;;;;;;;15.54;100.00;100646.72;5427035;26;20017;-71
2024/04/12 01:13:40;;;;;;;14.43;10.60;;;;;;;15.45;100.00;100587.31;5425640;26;20004;-70
2024/04/12 01:16:06;;;;;;;13.57;10.48;;;;;;;15.08;100.00;100562.19;5424316;26;20016;-71
2024/04/12 01:18:34;;;;;;;15.05;10.65;;;;;;;15.23;100.00;100497.56;5434659;26;19999;-71
2024/04/12 01:21:00;;;;;;;15.25;10.20;;;;;;;15.63;100.00;100654.06;5425765;26;19999;-70
2024/04/12 01:23:27;;;;;;;13.52;9.55;;;;;;;15.49;100.00;100533.28;5423859;26;20068;-71
2024/04/12 01:25:56;;;;;;;12.38;10.00;;;;;;;15.54;100.00;100598.03;5429252;26;19999;-70
2024/04/12 01:28:22;;;;;;;13.50;10.52;;;;;;;15.48;100.00;100562.38;5427823;26;20075;-71
2024/04/12 01:30:47;;;;;;;12.50;9.98;;;;;;;15.71;100.00;100645.25;5431801;26;20002;-70
2024/04/12 01:33:13;;;;;;;13.32;10.10;;;;;;;15.50;100.00;100640.06;5419327;26;20357;-72
2024/04/12 01:35:42;;;;;;;12.00;10.05;;;;;;;15.87;100.00;100580.47;5433157;26;20379;-71
2024/04/12 01:38:16;;;;;;;12.60;10.48;;;;;;;15.63;100.00;100474.63;5426690;26;20000;-71
2024/04/12 01:40:46;;;;;;;11.93;9.85;;;;;;;16.22;100.00;100559.34;5424582;26;20003;-71
2024/04/12 01:43:12;;;;;;;13.15;9.45;;;;;;;15.82;100.00;100461.91;5425412;26;20028;-69
2024/04/12 01:45:39;;;;;;;14.00;9.27;;;;;;;16.03;100.00;100532.81;5430907;26;20021;-70
2024/04/12 01:48:05;;;;;;;13.80;7.90;;;;;;;16.20;100.00;100325.09;5429760;26;20595;-69
2024/04/12 01:50:34;;;;;;;10.85;8.57;;;;;;;17.27;100.00;100506.78;5430309;26;20457;-70
2024/04/12 01:53:09;;;;;;;13.40;8.60;;;;;;;17.07;100.00;100471.69;5428542;26;20363;-69
2024/04/12 01:55:35;;;;;;;12.15;8.77;;;;;;;16.98;100.00;100496.97;5426987;26;20076;-69
2024/04/12 01:58:01;;;;;;;10.48;8.90;;;;;;;16.91;100.00;100552.97;5425997;26;20009;-69
2024/04/12 02:00:27;;;;;;;10.48;8.50;;;;;;;16.83;100.00;100516.50;5428074;26;20003;-69
2024/04/12 02:02:58;;;;;;;11.73;8.77;;;;;;;16.58;100.00;100474.03;5427592;26;20387;-69
2024/04/12 02:05:34;;;;;;;11.18;8.15;;;;;;;17.00;100.00;100557.69;5428022;26;20028;-73
2024/04/12 02:11:05;;;;;;;10.00;8.20;;;;;;;17.54;100.00;100577.47;5363221;26;20014;-70
2024/04/12 02:13:36;;;;;;;10.95;7.88;;;;;;;17.01;100.00;100448.88;5434930;26;20018;-71
2024/04/12 02:16:04;;;;;;;9.70;7.82;;;;;;;17.39;100.00;100543.91;5433189;26;20268;-71
2024/04/12 02:18:33;;;;;;;8.57;7.68;;;;;;;17.86;100.00;100612.81;5432908;26;20077;-71
2024/04/12 02:21:04;;;;;;;11.80;8.10;;;;;;;17.84;100.00;100622.34;5428392;26;20363;-69
2024/04/12 02:23:32;;;;;;;;;;;;;;;17.95;100.00;100668.13;5426061;26;20004;-70
2024/04/12 02:25:58;;;;;;;13.73;8.05;;;;;;;17.74;100.00;100646.00;5424159;26;19944;-69
2024/04/12 02:28:26;;;;;;;12.45;8.32;;;;;;;17.90;100.00;100675.25;5438179;26;20011;-70
2024/04/12 02:31:01;;;;;;;9.77;8.02;;;;;;;17.82;100.00;100682.47;5431281;26;20002;-70
2024/04/12 02:33:31;;;;;;;9.82;7.68;;;;;;;17.50;100.00;100604.25;5433347;26;20026;-71
2024/04/12 02:36:00;;;;;;;15.40;8.87;;;;;;;17.88;100.00;100677.06;5426750;26;19995;-70
2024/04/12 02:38:26;;;;;;;11.15;8.50;;;;;;;17.71;100.00;100671.84;5430194;26;20406;-70
2024/04/12 02:40:52;;;;;;;11.52;8.25;;;;;;;17.34;100.00;100556.97;5424433;26;20235;-70
2024/04/12 02:43:24;;;;;;;15.60;8.20;;;;;;;17.86;100.00;100653.13;5432426;26;20003;-70
2024/04/12 02:46:00;;;;;;;10.73;8.27;;;;;;;17.70;100.00;100673.59;5432442;26;20052;-70
2024/04/12 02:48:28;;;;;;;13.05;8.98;;;;;;;17.97;100.00;100640.59;5422739;26;20013;-70
2024/04/12 02:50:55;;;;;;;11.77;8.52;;;;;;;17.71;100.00;100666.69;5430549;26;20351;-70
2024/04/12 02:53:25;;;;;;;9.55;8.18;;;;;;;17.89;100.00;100661.53;5433410;26;20004;-69
2024/04/12 02:56:02;;;;;;;10.23;7.82;;;;;;;17.91;100.00;100630.59;5433505;26;20011;-69
2024/04/12 02:58:40;;;;;;;10.35;7.93;;;;;;;17.19;100.00;100529.41;5420134;26;20074;-70
2024/04/12 03:01:10;;;;;;;11.23;8.27;;;;;;;17.58;100.00;100591.03;5424693;26;20003;-70
2024/04/12 03:03:41;;;;;;;10.20;8.07;;;;;;;18.06;100.00;100689.88;5430000;26;20356;-71
2024/04/12 03:06:09;;;;;;;11.98;7.93;;;;;;;17.55;100.00;100611.75;5430087;26;20384;-70
2024/04/12 03:08:40;;;;;;;10.80;7.70;;;;;;;17.79;100.00;100638.88;5423561;26;20018;-71
2024/04/12 03:11:55;;;;;;;13.05;7.82;;;;;;;18.10;100.00;100673.38;5430922;26;20003;-70
2024/04/12 03:14:08;;;;;;;11.00;7.70;;;;;;;18.02;100.00;100672.94;5417041;26;20237;-69
2024/04/12 03:16:36;;;;;;;13.88;7.70;;;;;;;17.74;100.00;100669.13;5437545;26;20000;-71
2024/04/12 03:19:07;;;;;;;12.20;7.82;;;;;;;18.36;100.00;100787.19;5429279;26;19999;-71
2024/04/12 03:21:34;;;;;;;13.65;7.47;;;;;;;18.21;100.00;100778.44;5433527;26;19999;-69
2024/04/12 03:24:01;;;;;;;9.68;7.43;;;;;;;18.26;100.00;100806.53;5425791;26;20076;-70
2024/04/12 03:26:27;;;;;;;10.35;8.02;;;;;;;17.47;100.00;100657.53;5422144;26;20019;-70
2024/04/12 03:28:59;;;;;;;12.05;8.48;;;;;;;18.34;100.00;100807.03;5423455;26;20007;-70
2024/04/12 03:31:26;;;;;;;9.18;7.80;;;;;;;17.84;100.00;100730.41;5418010;26;20009;-70
2024/04/12 03:33:54;;;;;;;13.45;8.25;;;;;;;17.84;100.00;100717.53;5425485;26;20661;-70
2024/04/12 03:36:28;;;;;;;12.93;8.15;;;;;;;18.36;100.00;100842.06;5440462;26;20002;-70
2024/04/12 03:41:57;;;;;;;12.32;8.45;;;;;;;17.73;100.00;100778.91;5421049;26;20021;-70
2024/04/12 03:44:25;;;;;;;12.95;8.18;;;;;;;18.20;100.00;100820.53;5425750;26;20360;-72
2024/04/12 03:46:51;;;;;;;11.52;8.60;;;;;;;17.93;100.00;100827.75;5420968;26;20372;-70
2024/04/12 03:49:20;;;;;;;15.63;8.85;;;;;;;17.91;100.00;100806.41;5418218;26;20015;-71
2024/04/12 03:51:47;;;;;;;13.70;8.05;;;;;;;17.88;100.00;100756.81;5420540;26;19999;-72
2024/04/12 03:54:17;;;;;;;11.85;8.30;;;;;;;16.99;100.00;100615.13;5422352;26;20004;-72
2024/04/12 03:56:49;;;;;;;9.05;7.35;;;;;;;18.17;100.00;100761.44;5418387;26;20335;-71
2024/04/12 03:59:15;;;;;;;;;;;;;;;18.31;100.00;100794.28;5422165;26;20014;-71
2024/04/12 04:01:44;;;;;;;11.77;7.35;;;;;;;17.85;100.00;100756.94;5417116;26;19925;-72
2024/04/12 04:04:17;;;;;;;10.77;7.40;;;;;;;17.88;100.00;100754.25;5414669;26;20441;-73
2024/04/12 04:06:55;;;;;;;10.25;7.32;;;;;;;18.31;100.00;100825.16;5423434;26;20002;-70
2024/04/12 04:09:26;;;;;;;13.68;7.72;;;;;;;18.14;100.00;100823.38;5425432;26;20000;-71
2024/04/12 04:11:53;;;;;;;11.27;8.05;;;;;;;18.42;100.00;100818.63;5417977;26;20007;-72
2024/04/12 04:14:20;;;;;;;10.40;7.30;;;;;;;17.62;100.00;100759.72;5422480;26;20078;-73
2024/04/12 04:17:02;;;;;;;11.77;7.93;;;;;;;18.16;100.00;100795.84;5421706;26;20017;-74
2024/04/12 04:19:35;;;;;;;15.88;7.70;;;;;;;18.14;100.00;100764.19;5422690;26;20445;-74
2024/04/12 04:22:05;;;;;;;14.82;8.52;;;;;;;18.07;100.00;100784.22;5418718;26;20613;-73
2024/04/12 04:24:33;;;;;;;18.60;9.05;;;;;;;17.34;100.00;100634.94;5421680;26;20072;-74
2024/04/12 04:26:59;;;;;;;16.38;8.93;;;;;;;17.73;100.00;100688.03;5422378;26;20050;-74
2024/04/12 04:29:25;;;;;;;11.45;9.10;;;;;;;18.22;100.00;100732.94;5416400;26;20331;-70
2024/04/12 04:31:52;;;;;;;14.02;8.75;;;;;;;17.76;100.00;100693.91;5421048;26;20030;-71
2024/04/12 04:34:22;;;;;;;16.33;8.80;;;;;;;18.18;100.00;100732.25;5422496;26;20000;-73
2024/04/12 04:36:55;;;;;;;13.32;9.02;;;;;;;18.29;100.00;100771.19;5420518;26;20014;-70
2024/04/12 04:39:23;;;;;;;14.00;9.50;;;;;;;17.84;100.00;100688.41;5418024;26;20323;-71
2024/04/12 04:41:50;;;;;;;15.48;9.38;;;;;;;17.78;100.00;100686.09;5422037;26;20011;-71
2024/04/12 04:44:16;;;;;;;14.88;9.73;;;;;;;17.54;100.00;100682.91;5423217;26;20003;-73
2024/04/12 04:46:45;;;;;;;15.77;9.25;;;;;;;18.44;100.00;100792.84;5431870;26;20007;-69
2024/04/12 04:49:15;;;;;;;11.45;8.60;;;;;;;18.06;100.00;100730.25;5424469;26;20011;-70
2024/04/12 04:51:42;;;;;;;19.50;9.48;;;;;;;18.30;100.00;100747.13;5434215;26;20075;-71
2024/04/12 04:54:13;;;;;;;11.75;8.90;;;;;;;18.77;100.00;100815.25;5426922;26;20052;-70
2024/04/12 04:56:39;;;;;;;;;;;;;;;18.91;100.00;100830.91;5426967;26;19999;-69
2024/04/12 04:59:06;;;;;;;15.60;8.68;;;;;;;18.19;100.00;100754.50;5427496;26;19925;-73
2024/04/12 05:01:34;;;;;;;12.18;9.05;;;;;;;17.91;100.00;100712.91;5433110;26;20047;-69
2024/04/12 05:04:00;;;;;;;10.63;8.95;;;;;;;17.97;100.00;100703.19;5423547;26;19995;-70
2024/04/12 05:06:27;;;;;;;13.50;9.07;;;;;;;18.13;100.00;100674.97;5432952;26;20003;-70
2024/04/12 05:09:00;;;;;;;10.00;8.35;;;;;;;18.84;100.00;100800.31;5426641;26;20438;-70
2024/04/12 05:11:29;;;;;;;11.15;8.10;;;;;;;19.04;100.00;100821.63;5425764;26;19999;-69
2024/04/12 05:14:05;;;;;;;12.88;8.18;;;;;;;19.05;100.00;100786.38;5425112;26;19999;-69
2024/04/12 05:16:32;;;;;;;11.25;7.88;;;;;;;19.65;100.00;100885.66;5424745;26;20397;-70
2024/04/12 05:19:08;;;;;;;14.68;7.75;;;;;;;19.89;100.00;100889.56;5432114;26;19999;-70
2024/04/12 05:21:35;;;;;;;10.90;7.88;;;;;;;19.28;100.00;100841.94;5434635;26;20030;-70
2024/04/12 05:24:02;;;;;;;10.75;7.60;;;;;;;19.52;100.00;100947.38;5432444;26;20000;-69
2024/04/12 05:26:29;;;;;;;11.18;7.72;;;;;;;19.21;100.00;100859.50;5429140;26;19998;-69
2024/04/12 05:28:56;;;;;;;13.93;8.15;;;;;;;19.52;100.00;100949.97;5432886;26;20003;-70
2024/04/12 05:31:29;;;;;;;8.45;7.40;;;;;;;19.64;100.00;100954.50;5428599;26;20072;-71
2024/04/12 05:33:55;;;;;;;12.07;7.40;;;;;;;19.84;100.00;100935.44;5428030;26;20035;-69
2024/04/12 05:36:21;;;;;;;11.20;7.72;;;;;;;19.27;100.00;100879.81;5427942;26;20015;-70
2024/04/12 05:38:47;;;;;;;11.43;8.13;;;;;;;19.48;100.00;100927.78;5433677;26;20007;-70
2024/04/12 05:41:15;;;;;;;9.10;7.40;;;;;;;19.36;100.00;100874.22;5430373;26;20075;-70
2024/04/12 05:43:40;;;;;;;9.13;7.55;;;;;;;19.37;100.00;100881.03;5421023;26;20047;-69
2024/04/12 05:46:06;;;;;;;11.90;7.68;;;;;;;19.85;100.00;100947.44;5427300;26;20000;-70
2024/04/12 05:48:31;;;;;;;9.75;7.60;;;;;;;19.92;100.00;100951.38;5430978;26;19998;-69
2024/04/12 05:50:58;;;;;;;16.85;8.15;;;;;;;19.93;100.00;100984.03;5424840;26;20016;-70
2024/04/12 05:53:26;;;;;;;8.95;7.03;;;;;;;20.04;100.00;100973.16;5432860;26;20014;-70
2024/04/12 05:56:20;;;;;;;9.13;7.15;;;;;;;19.74;100.00;100916.16;5437549;26;20003;-71
2024/04/12 05:58:36;;;;;;;14.30;7.63;;;;;;;19.65;100.00;100911.47;5428020;26;20003;-71
2024/04/12 06:01:07;;;;;;;10.43;7.25;;;;;;;19.94;100.00;100905.66;5433623;26;20003;-69
2024/04/12 06:03:33;;;;;;;9.90;7.60;;;;;;;20.62;100.00;101000.25;5427002;26;20018;-69
2024/04/12 06:05:59;;;;;;;10.88;7.32;;;;;;;21.22;100.00;101058.22;5419568;26;20519;-70
2024/04/12 06:08:25;;;;;;;8.50;7.20;;;;;;;21.21;100.00;101075.50;5430760;26;20048;-70
2024/04/12 06:10:50;;;;;;;12.82;7.28;;;;;;;21.24;100.00;101123.66;5434477;26;20433;-70
2024/04/12 06:13:20;;;;;;;9.75;7.03;;;;;;;21.56;100.00;101148.63;5422923;26;20000;-74
2024/04/12 06:15:48;;;;;;;12.40;6.60;;;;;;;21.98;100.00;101189.50;5431046;26;20006;-71
2024/04/12 06:18:16;;;;;;;8.30;6.80;;;;;;;21.88;100.00;101285.00;5423935;26;19999;-71
2024/04/12 06:20:43;;;;;;;11.20;6.38;;;;;;;22.16;100.00;101284.34;5434205;26;20017;-70
2024/04/12 06:23:14;;;;;;;12.05;6.78;;;;;;;22.58;100.00;101359.75;5433257;26;20010;-70
2024/04/12 06:25:45;;;;;;;10.55;6.40;;;;;;;23.27;100.00;101298.63;5420124;26;20003;-70
2024/04/12 06:28:12;;;;;;;7.95;6.43;;;;;;;22.78;100.00;101372.44;5432203;26;20370;-70
2024/04/12 06:30:44;;;;;;;8.93;6.22;;;;;;;22.69;100.00;101356.56;5432664;26;20086;-70
2024/04/12 06:33:12;;;;;;;9.68;6.55;;;;;;;23.42;100.00;101306.47;5435058;26;20063;-70
2024/04/12 06:35:44;;;;;;;12.23;6.55;;;;;;;23.60;100.00;101443.03;5416982;26;19999;-70
2024/04/12 06:38:10;;;;;;;11.88;5.93;;;;;;;23.20;100.00;101408.09;5426842;26;20017;-70
2024/04/12 06:40:37;;;;;;;10.65;6.28;;;;;;;22.93;100.00;101422.66;5427766;26;20003;-70
2024/04/12 06:43:11;;;;;;;10.60;6.22;;;;;;;22.93;100.00;101443.41;5429130;26;20009;-71
2024/04/12 06:45:43;;;;;;;11.82;6.00;;;;;;;24.22;100.00;101460.13;5428983;26;20470;-70
2024/04/12 06:48:16;;;;;;;12.75;6.13;;;;;;;23.62;100.00;101384.88;5435842;26;20147;-70
2024/04/12 06:51:05;;;;;;;8.60;6.00;;;;;;;24.47;100.00;101468.91;5430970;26;20017;-70
2024/04/12 06:53:32;;;;;;;9.95;5.75;;;;;;;24.32;100.00;101469.88;5427607;26;19999;-71
2024/04/12 06:55:59;;;;;;;9.32;5.80;;;;;;;24.30;100.00;101517.69;5428806;26;20015;-71
2024/04/12 06:58:26;;;;;;;13.70;6.35;;;;;;;24.13;100.00;101424.28;5428853;26;20007;-71
2024/04/12 07:00:56;;;;;;;12.10;5.93;;;;;;;23.83;100.00;101531.69;5427556;26;20019;-70
2024/04/12 07:03:22;;;;;;;11.65;5.88;;;;;;;23.62;100.00;101532.94;5433945;26;20003;-71
2024/04/12 07:05:49;;;;;;;10.10;6.15;;;;;;;23.05;100.00;101437.53;5419917;26;20026;-72
2024/04/12 07:08:18;;;;;;;8.13;6.10;;;;;;;23.38;100.00;101463.34;5425418;26;19999;-71
2024/04/12 07:10:48;;;;;;;10.85;6.25;;;;;;;22.81;100.00;101431.97;5429378;26;20436;-71
2024/04/12 07:13:21;;;;;;;11.10;6.13;;;;;;;23.01;100.00;101456.78;5418184;26;20011;-73
2024/04/12 07:15:50;;;;;;;8.32;6.00;;;;;;;23.04;100.00;101482.56;5426757;26;20003;-71
2024/04/12 07:18:22;;;;;;;7.63;5.85;;;;;;;22.96;100.00;101484.75;5421672;26;20045;-71
2024/04/12 07:20:48;;;;;;;9.80;5.90;;;;;;;23.42;100.00;101478.69;5420453;26;20081;-72
2024/04/12 07:23:15;;;;;;;8.30;5.85;;;;;;;23.06;100.00;101390.72;5425287;26;20003;-71
2024/04/12 07:25:47;;;;;;;10.60;6.20;;;;;;;23.24;100.00;101490.91;5413106;26;20000;-74
2024/04/12 07:28:18;;;;;;;11.43;6.60;;;;;;;22.94;100.00;101408.75;5430326;26;20075;-71
2024/04/12 07:30:44;;;;;;;9.27;6.10;;;;;;;23.32;100.00;101474.94;5419987;26;20018;-71
2024/04/12 07:33:13;;;;;;;10.48;6.22;;;;;;;23.58;100.00;101482.09;5432156;26;20015;-71
2024/04/12 07:35:48;;;;;;;12.23;5.80;;;;;;;22.90;100.00;101418.47;5419734;26;20021;-71
2024/04/12 07:38:14;;;;;;;10.30;5.88;;;;;;;23.27;100.00;101495.94;5418055;26;20000;-72
2024/04/12 07:40:42;;;;;;;8.88;5.78;;;;;;;23.57;100.00;101495.16;5425271;26;20478;-71
2024/04/12 07:43:08;;;;;;;11.65;6.45;;;;;;;23.56;100.00;101488.28;5436694;26;20003;-70
2024/04/12 07:45:37;;;;;;;9.10;6.43;;;;;;;23.70;100.00;101423.38;5429171;26;20467;-71
2024/04/12 07:50:54;;;;;;;10.48;6.13;;;;;;;24.69;100.00;101492.69;5434535;26;20003;-71
2024/04/12 07:53:23;;;;;;;8.48;5.63;;;;;;;25.05;100.00;101492.16;5437209;26;20003;-71
2024/04/12 07:56:08;;;;;;;10.32;5.90;;;;;;;24.99;100.00;101427.47;5427500;26;20003;-71
2024/04/12 07:58:35;;;;;;;7.72;5.63;;;;;;;25.08;100.00;101433.84;5424554;26;20345;-71
2024/04/12 08:01:18;;;;;;;9.15;5.80;;;;;;;24.95;100.00;101532.72;5434164;26;19998;-71
2024/04/12 08:03:50;;;;;;;8.55;5.30;;;;;;;25.45;100.00;101503.47;5433435;26;20003;-71
2024/04/12 08:06:19;;;;;;;10.43;5.25;;;;;;;25.34;100.00;101412.97;5432429;26;20007;-72
2024/04/12 08:08:46;;;;;;;7.65;5.32;;;;;;;25.65;100.00;101527.28;5427380;26;20003;-71
2024/04/12 08:11:33;;;;;;;8.30;5.30;;;;;;;25.94;100.00;101498.44;5435332;26;20412;-72
2024/04/12 08:14:05;;;;;;;6.65;5.43;;;;;;;25.85;100.00;101452.16;5433100;26;20015;-71
2024/04/12 08:16:39;;;;;;;10.82;5.60;;;;;;;25.93;100.00;101494.19;5433826;26;20003;-72
2024/04/12 08:19:12;;;;;;;10.00;5.65;;;;;;;25.81;100.00;101428.03;5423091;26;20355;-71
2024/04/12 08:21:47;;;;;;;8.40;5.28;;;;;;;26.39;100.00;101503.16;5440407;26;20030;-71
2024/04/12 08:24:22;;;;;;;9.23;5.53;;;;;;;26.38;100.00;101506.72;5427904;26;20008;-71
2024/04/12 08:26:48;;;;;;;7.47;5.30;;;;;;;26.63;100.00;101527.53;5425741;26;20065;-69
2024/04/12 08:29:23;;;;;;;10.38;5.50;;;;;;;26.28;100.00;101521.31;5429678;26;19999;-71
2024/04/12 08:34:45;;;;;;;8.95;5.43;;;;;;;27.17;100.00;101460.97;5436809;26;19999;-70
2024/04/12 08:37:16;;;;;;;12.57;6.07;;;;;;;27.73;100.00;101479.47;5428704;26;19999;-70
2024/04/12 08:39:46;;;;;;;11.65;5.40;;;;;;;27.38;100.00;101492.53;5430108;26;19999;-70
2024/04/12 08:42:16;;;;;;;10.13;5.57;;;;;;;27.16;100.00;101519.38;5423388;26;20347;-70
2024/04/12 08:44:46;;;;;;;9.05;5.60;;;;;;;26.66;100.00;101417.72;5428730;26;20003;-70
2024/04/12 08:47:16;;;;;;;12.53;5.70;;;;;;;27.22;100.00;101511.09;5431458;26;20002;-70
2024/04/12 08:49:48;;;;;;;11.57;4.93;;;;;;;27.15;100.00;101469.84;5425414;26;19999;-70
2024/04/12 08:52:28;;;;;;;7.70;5.40;;;;;;;27.19;100.00;101479.13;5433807;26;20349;-70
2024/04/12 08:54:56;;;;;;;15.13;5.88;;;;;;;27.13;100.00;101517.00;5424341;26;20032;-70
2024/04/12 08:57:23;;;;;;;11.90;5.20;;;;;;;26.69;100.00;101541.94;5426671;26;20000;-71
2024/04/12 08:59:49;;;;;;;7.53;4.55;;;;;;;27.58;100.00;101462.28;5430590;26;20011;-70
2024/04/12 09:02:22;;;;;;;6.60;5.00;;;;;;;27.67;100.00;101486.00;5426382;26;20076;-70
2024/04/12 09:04:47;;;;;;;7.80;4.97;;;;;;;26.99;100.00;101446.63;5427075;26;20056;-70
2024/04/12 09:07:20;;;;;;;7.32;4.57;;;;;;;27.01;100.00;101438.66;5420556;26;20010;-70
2024/04/12 09:09:55;;;;;;;7.78;4.32;;;;;;;27.52;100.00;101478.44;5422334;26;19998;-70
2024/04/12 09:12:24;;;;;;;7.20;4.55;;;;;;;27.41;100.00;101467.00;5426706;26;19999;-70
2024/04/12 09:14:54;;;;;;;9.50;4.40;;;;;;;27.24;100.00;101492.66;5431284;26;20003;-70
2024/04/12 09:17:28;;;;;;;15.55;5.10;;;;;;;26.90;100.00;101468.16;5433140;26;20014;-71
2024/04/12 09:19:57;;;;;;;8.70;4.90;;;;;;;27.18;100.00;101467.84;5435466;26;20043;-70
2024/04/12 09:22:27;;;;;;;8.50;4.95;;;;;;;27.42;100.00;101507.88;5435617;26;20018;-70
2024/04/12 09:24:56;;;;;;;7.25;4.45;;;;;;;26.82;100.00;101393.97;5425060;26;20030;-70
2024/04/12 09:27:33;;;;;;;7.25;4.70;;;;;;;26.86;100.00;101424.13;5421981;26;20015;-71
2024/04/12 09:32:53;;;;;;;7.40;4.93;;;;;;;27.92;100.00;101423.03;5414145;26;20578;-71
2024/04/12 09:35:26;;;;;;;9.15;4.70;;;;;;;28.08;100.00;101409.59;5419007;26;20015;-72
2024/04/12 09:38:01;;;;;;;8.55;5.60;;;;;;;28.11;100.00;101367.50;5427093;26;20080;-71
2024/04/12 09:40:28;;;;;;;9.43;5.70;;;;;;;28.49;100.00;101443.81;5424308;26;20002;-71
2024/04/12 09:45:45;;;;;;;6.55;5.07;;;;;;;27.93;100.00;101463.09;5435847;26;20026;-73
2024/04/12 10:38:36;;;;;;;8.55;5.03;;;;;;;27.22;100.00;101338.66;5429905;26;20033;-71
2024/04/12 10:41:07;;;;;;;7.70;4.88;;;;;;;28.25;100.00;101425.66;5428733;26;20005;-71
2024/04/12 10:43:36;;;;;;;8.18;4.82;;;;;;;28.68;100.00;101391.66;5425988;26;20076;-72
2024/04/12 10:46:05;;;;;;;6.20;4.63;;;;;;;28.41;100.00;101302.25;5430395;26;20147;-72
2024/04/12 10:48:33;;;;;;;7.63;4.57;;;;;;;27.95;100.00;101474.31;5433210;26;20157;-72
2024/04/12 10:51:00;;;;;;;7.75;4.80;;;;;;;27.79;100.00;101464.13;5431841;26;20017;-72
2024/04/12 10:53:29;;;;;;;8.98;4.50;;;;;;;28.28;100.00;101427.19;5433896;26;20014;-72
2024/04/12 10:55:55;;;;;;;8.23;4.57;;;;;;;28.63;100.00;101317.91;5430968;26;20007;-72
2024/04/12 10:58:27;;;;;;;8.75;5.25;;;;;;;28.32;100.00;101446.09;5426463;26;20003;-72
2024/04/12 11:00:55;;;;;;;7.70;4.47;;;;;;;28.24;100.00;101418.78;5428291;26;20018;-72
2024/04/12 11:03:24;;;;;;;14.88;5.13;;;;;;;28.51;100.00;101366.00;5424942;26;20338;-72
2024/04/12 11:05:51;;;;;;;9.40;4.90;;;;;;;28.04;100.00;101429.13;5432644;26;20024;-71
2024/04/12 11:08:19;;;;;;;10.57;5.00;;;;;;;28.61;100.00;101432.41;5426997;26;20456;-72
2024/04/12 11:11:15;;;;;;;5.70;4.72;;;;;;;28.97;100.00;101366.56;5433394;26;19999;-72
2024/04/12 11:13:45;;;;;;;6.25;4.63;;;;;;;28.36;100.00;101355.94;5423578;26;20011;-71
2024/04/12 11:32:37;;;;;;;9.13;4.70;;;;;;;28.17;100.00;101416.72;5428277;26;20013;-72
2024/04/12 11:35:03;;;;;;;11.98;4.85;;;;;;;29.33;100.00;101367.09;5423938;26;20446;-72
2024/04/12 11:37:29;;;;;;;6.40;4.55;;;;;;;29.35;100.00;101354.69;5421150;26;19999;-72
2024/04/12 11:39:56;;;;;;;9.63;4.65;;;;;;;29.01;100.00;101383.69;5429629;26;20043;-72
2024/04/12 11:42:23;;;;;;;6.63;4.35;;;;;;;28.56;100.00;101366.50;5425252;26;20071;-72
2024/04/12 11:44:53;;;;;;;10.90;4.80;;;;;;;28.45;100.00;101342.91;5421491;26;20031;-72
2024/04/12 11:47:19;;;;;;;6.80;4.72;;;;;;;27.72;100.00;101347.88;5429593;26;20017;-71
2024/04/12 11:49:49;;;;;;;12.18;4.90;;;;;;;28.74;100.00;101393.78;5432554;26;20321;-73
2024/04/12 11:52:15;;;;;;;10.05;4.70;;;;;;;28.71;100.00;101319.88;5426766;26;20015;-71
2024/04/12 11:54:53;;;;;;;5.05;4.40;;;;;;;28.37;100.00;101306.06;5419887;26;20029;-71
2024/04/12 11:57:22;;;;;;;8.32;4.72;;;;;;;28.44;100.00;101298.56;5439251;26;20000;-72
2024/04/12 11:59:54;;;;;;;10.88;4.55;;;;;;;28.92;100.00;101291.94;5429720;26;19998;-72
2024/04/12 12:02:22;;;;;;;7.28;4.32;;;;;;;28.32;100.00;101339.63;5437933;26;20003;-72
2024/04/12 12:04:48;;;;;;;9.25;4.63;;;;;;;28.33;100.00;101370.06;5429275;26;19999;-73
2024/04/12 12:07:15;;;;;;;8.43;5.05;;;;;;;29.18;100.00;101345.63;5433563;26;20076;-71
2024/04/12 12:09:41;;;;;;;8.50;4.82;;;;;;;29.80;100.00;101261.59;5428021;26;20018;-72
2024/04/12 12:12:10;;;;;;;6.80;4.40;;;;;;;29.68;100.00;101334.31;5439206;26;20057;-72
2024/04/12 12:14:43;;;;;;;6.95;4.40;;;;;;;28.79;100.00;101388.19;5428051;26;20435;-72
2024/04/12 12:17:09;;;;;;;7.38;4.30;;;;;;;28.37;100.00;101378.50;5429624;26;20698;-72
2024/04/12 12:19:35;;;;;;;7.13;4.30;;;;;;;28.71;100.00;101364.41;5421322;26;20003;-73
2024/04/12 12:22:02;;;;;;;8.65;4.30;;;;;;;28.84;100.00;101365.09;5424774;26;20003;-74
2024/04/12 12:24:29;;;;;;;6.55;4.40;;;;;;;29.39;100.00;101341.22;5427906;26;20003;-73
2024/04/12 12:26:54;;;;;;;8.40;4.45;;;;;;;28.88;100.00;101304.44;5423419;26;20035;-72
2024/04/12 12:29:20;;;;;;;6.95;4.70;;;;;;;28.45;100.00;101353.38;5430660;26;20017;-73
2024/04/12 12:31:46;;;;;;;9.57;4.90;;;;;;;29.35;100.00;101346.84;5435000;26;20011;-72
2024/04/12 12:34:13;;;;;;;10.70;5.13;;;;;;;28.87;100.00;101333.38;5428086;26;20003;-74
2024/04/12 12:36:44;;;;;;;10.18;4.57;;;;;;;27.21;100.00;101368.34;5418971;26;20218;-72
2024/04/12 12:39:12;;;;;;;9.07;4.47;;;;;;;27.10;100.00;101329.13;5432306;26;20048;-72
2024/04/12 12:41:38;;;;;;;7.75;4.60;;;;;;;27.92;100.00;101386.41;5432808;26;19998;-73
2024/04/12 12:44:07;;;;;;;7.90;4.30;;;;;;;27.09;100.00;101340.53;5433056;26;20418;-73
2024/04/12 12:46:32;;;;;;;7.60;4.68;;;;;;;27.34;100.00;101329.06;5433231;26;20470;-72